Terminal Aerodrome Forecast
Issued by NWS

Home | Current Version | Previous Version | Text Only | Print | Product List | Glossary On
Versions: 1 2 3 4 5 6 7 8 9 10 11 12 13 14 15 16 17 18 19 20 21 22 23
000
FTPA31 PHFO 051700
TAFPPG
TAF
NSTU 051740Z 0518/0618 VRB03KT P6SM VCTS SCT015CB BKN050
     FM052300 05010KT P6SM VCSH SCT020 SCT050 BKN120
     FM060600 VRB30KT P6SM VCSH SCT020 SCT050 BKN120=

USA.gov is the U.S. government's official web portal to all federal, state and local government web resources and services.